sensor_id;sensor_type;location;lat;lon;timestamp;P1;durP1;ratioP1;P2;durP2;ratioP2
28070;SDS011;15383;48.408;9.968;2022-12-26T00:01:25;2.88;;;1.80;;
28070;SDS011;15383;48.408;9.968;2022-12-26T00:03:52;7.47;;;2.30;;
28070;SDS011;15383;48.408;9.968;2022-12-26T00:06:21;3.35;;;1.90;;
28070;SDS011;15383;48.408;9.968;2022-12-26T00:08:49;3.75;;;2.03;;
28070;SDS011;15383;48.408;9.968;2022-12-26T00:11:15;4.18;;;1.80;;
28070;SDS011;15383;48.408;9.968;2022-12-26T00:13:41;4.28;;;1.80;;
28070;SDS011;15383;48.408;9.968;2022-12-26T00:16:08;3.25;;;1.90;;
28070;SDS011;15383;48.408;9.968;2022-12-26T00:18:35;5.43;;;1.80;;
28070;SDS011;15383;48.408;9.968;2022-12-26T00:21:01;5.40;;;2.10;;
28070;SDS011;15383;48.408;9.968;2022-12-26T00:23:27;6.30;;;2.40;;
28070;SDS011;15383;48.408;9.968;2022-12-26T00:25:52;7.85;;;2.25;;
28070;SDS011;15383;48.408;9.968;2022-12-26T00:28:18;6.88;;;2.50;;
28070;SDS011;15383;48.408;9.968;2022-12-26T00:30:44;6.03;;;2.55;;
28070;SDS011;15383;48.408;9.968;2022-12-26T00:33:09;5.50;;;2.70;;
28070;SDS011;15383;48.408;9.968;2022-12-26T00:35:35;6.70;;;2.45;;
28070;SDS011;15383;48.408;9.968;2022-12-26T00:38:00;6.15;;;2.78;;
28070;SDS011;15383;48.408;9.968;2022-12-26T00:40:26;4.82;;;2.97;;
28070;SDS011;15383;48.408;9.968;2022-12-26T00:42:51;8.63;;;3.30;;
28070;SDS011;15383;48.408;9.968;2022-12-26T00:45:17;7.57;;;2.88;;
28070;SDS011;15383;48.408;9.968;2022-12-26T00:47:42;10.60;;;3.35;;
28070;SDS011;15383;48.408;9.968;2022-12-26T00:50:08;13.00;;;3.28;;
28070;SDS011;15383;48.408;9.968;2022-12-26T00:52:34;6.82;;;3.60;;
28070;SDS011;15383;48.408;9.968;2022-12-26T00:54:59;13.50;;;3.55;;
28070;SDS011;15383;48.408;9.968;2022-12-26T00:57:25;8.82;;;3.13;;
28070;SDS011;15383;48.408;9.968;2022-12-26T00:59:50;11.90;;;3.80;;
28070;SDS011;15383;48.408;9.968;2022-12-26T01:02:16;8.10;;;3.63;;
28070;SDS011;15383;48.408;9.968;2022-12-26T01:05:00;9.65;;;3.85;;
28070;SDS011;15383;48.408;9.968;2022-12-26T01:07:25;11.30;;;3.17;;
28070;SDS011;15383;48.408;9.968;2022-12-26T01:09:51;14.25;;;4.35;;
28070;SDS011;15383;48.408;9.968;2022-12-26T01:12:16;14.55;;;4.40;;
28070;SDS011;15383;48.408;9.968;2022-12-26T01:14:42;12.90;;;3.90;;
28070;SDS011;15383;48.408;9.968;2022-12-26T01:17:07;10.57;;;4.00;;
28070;SDS011;15383;48.408;9.968;2022-12-26T01:19:33;10.52;;;4.38;;
28070;SDS011;15383;48.408;9.968;2022-12-26T01:21:58;10.13;;;4.13;;
28070;SDS011;15383;48.408;9.968;2022-12-26T01:24:24;9.52;;;3.83;;
28070;SDS011;15383;48.408;9.968;2022-12-26T01:26:50;11.48;;;4.38;;
28070;SDS011;15383;48.408;9.968;2022-12-26T01:29:15;11.98;;;3.95;;
28070;SDS011;15383;48.408;9.968;2022-12-26T01:31:41;14.20;;;4.30;;
28070;SDS011;15383;48.408;9.968;2022-12-26T01:34:06;16.45;;;4.15;;
28070;SDS011;15383;48.408;9.968;2022-12-26T01:36:32;13.23;;;4.03;;
28070;SDS011;15383;48.408;9.968;2022-12-26T01:38:58;16.80;;;3.70;;
28070;SDS011;15383;48.408;9.968;2022-12-26T01:41:23;14.38;;;4.50;;
28070;SDS011;15383;48.408;9.968;2022-12-26T01:43:59;12.45;;;3.97;;
28070;SDS011;15383;48.408;9.968;2022-12-26T01:48:52;16.42;;;4.93;;
28070;SDS011;15383;48.408;9.968;2022-12-26T01:51:20;18.77;;;4.63;;
28070;SDS011;15383;48.408;9.968;2022-12-26T01:53:51;12.57;;;4.70;;
28070;SDS011;15383;48.408;9.968;2022-12-26T01:59:22;16.50;;;3.70;;
28070;SDS011;15383;48.408;9.968;2022-12-26T02:01:41;11.50;;;4.15;;
28070;SDS011;15383;48.408;9.968;2022-12-26T02:04:10;24.23;;;3.90;;
28070;SDS011;15383;48.408;9.968;2022-12-26T02:06:57;13.95;;;4.38;;
28070;SDS011;15383;48.408;9.968;2022-12-26T02:09:24;18.45;;;4.28;;
28070;SDS011;15383;48.408;9.968;2022-12-26T02:11:57;11.70;;;4.30;;
28070;SDS011;15383;48.408;9.968;2022-12-26T02:14:29;11.07;;;4.03;;
28070;SDS011;15383;48.408;9.968;2022-12-26T02:16:55;18.88;;;4.68;;
28070;SDS011;15383;48.408;9.968;2022-12-26T02:19:38;9.93;;;4.53;;
28070;SDS011;15383;48.408;9.968;2022-12-26T02:22:30;10.55;;;4.07;;
28070;SDS011;15383;48.408;9.968;2022-12-26T02:41:35;12.68;;;3.88;;
28070;SDS011;15383;48.408;9.968;2022-12-26T02:47:19;13.00;;;5.10;;
28070;SDS011;15383;48.408;9.968;2022-12-26T02:50:19;9.85;;;3.75;;
28070;SDS011;15383;48.408;9.968;2022-12-26T02:56:05;12.18;;;4.03;;
28070;SDS011;15383;48.408;9.968;2022-12-26T02:59:06;7.68;;;3.65;;
28070;SDS011;15383;48.408;9.968;2022-12-26T03:01:58;11.35;;;3.70;;
28070;SDS011;15383;48.408;9.968;2022-12-26T03:04:45;10.35;;;3.67;;
28070;SDS011;15383;48.408;9.968;2022-12-26T03:07:34;9.40;;;3.80;;
28070;SDS011;15383;48.408;9.968;2022-12-26T03:10:23;8.40;;;3.72;;
28070;SDS011;15383;48.408;9.968;2022-12-26T03:16:02;11.70;;;4.07;;
28070;SDS011;15383;48.408;9.968;2022-12-26T03:18:52;10.00;;;3.83;;
28070;SDS011;15383;48.408;9.968;2022-12-26T03:21:29;9.20;;;3.92;;
28070;SDS011;15383;48.408;9.968;2022-12-26T03:23:59;9.18;;;4.10;;
28070;SDS011;15383;48.408;9.968;2022-12-26T03:26:29;10.50;;;4.18;;
28070;SDS011;15383;48.408;9.968;2022-12-26T03:29:18;10.90;;;3.75;;
28070;SDS011;15383;48.408;9.968;2022-12-26T03:32:06;7.55;;;3.30;;
28070;SDS011;15383;48.408;9.968;2022-12-26T03:34:35;9.70;;;3.50;;
28070;SDS011;15383;48.408;9.968;2022-12-26T03:37:14;10.23;;;3.80;;
28070;SDS011;15383;48.408;9.968;2022-12-26T03:40:16;11.93;;;3.50;;
28070;SDS011;15383;48.408;9.968;2022-12-26T03:49:29;7.82;;;3.38;;
28070;SDS011;15383;48.408;9.968;2022-12-26T03:52:25;6.60;;;3.28;;
28070;SDS011;15383;48.408;9.968;2022-12-26T04:01:56;9.93;;;3.53;;
28070;SDS011;15383;48.408;9.968;2022-12-26T04:04:47;14.32;;;3.97;;
28070;SDS011;15383;48.408;9.968;2022-12-26T04:07:36;9.63;;;3.65;;
28070;SDS011;15383;48.408;9.968;2022-12-26T04:10:37;7.20;;;3.20;;
28070;SDS011;15383;48.408;9.968;2022-12-26T04:16:34;6.15;;;3.13;;
28070;SDS011;15383;48.408;9.968;2022-12-26T04:25:10;8.25;;;3.33;;
28070;SDS011;15383;48.408;9.968;2022-12-26T04:27:58;7.25;;;3.30;;
28070;SDS011;15383;48.408;9.968;2022-12-26T04:30:44;12.07;;;3.67;;
28070;SDS011;15383;48.408;9.968;2022-12-26T04:33:36;6.63;;;3.33;;
28070;SDS011;15383;48.408;9.968;2022-12-26T04:36:52;5.50;;;2.80;;
28070;SDS011;15383;48.408;9.968;2022-12-26T04:39:44;6.38;;;2.92;;
28070;SDS011;15383;48.408;9.968;2022-12-26T04:42:32;6.30;;;3.53;;
28070;SDS011;15383;48.408;9.968;2022-12-26T04:45:17;5.82;;;2.90;;
28070;SDS011;15383;48.408;9.968;2022-12-26T04:47:45;5.80;;;2.97;;
28070;SDS011;15383;48.408;9.968;2022-12-26T04:50:29;5.13;;;2.83;;
28070;SDS011;15383;48.408;9.968;2022-12-26T04:52:55;4.93;;;2.65;;
28070;SDS011;15383;48.408;9.968;2022-12-26T04:55:27;6.45;;;2.83;;
28070;SDS011;15383;48.408;9.968;2022-12-26T04:57:54;10.73;;;3.00;;
28070;SDS011;15383;48.408;9.968;2022-12-26T05:00:20;7.25;;;2.88;;
28070;SDS011;15383;48.408;9.968;2022-12-26T05:02:48;6.72;;;2.67;;
28070;SDS011;15383;48.408;9.968;2022-12-26T05:05:35;5.68;;;3.15;;
28070;SDS011;15383;48.408;9.968;2022-12-26T05:08:29;8.53;;;2.87;;
28070;SDS011;15383;48.408;9.968;2022-12-26T05:11:18;4.75;;;2.70;;
28070;SDS011;15383;48.408;9.968;2022-12-26T05:13:43;5.15;;;2.42;;
28070;SDS011;15383;48.408;9.968;2022-12-26T05:16:09;11.18;;;3.08;;
28070;SDS011;15383;48.408;9.968;2022-12-26T05:18:54;6.32;;;3.42;;
28070;SDS011;15383;48.408;9.968;2022-12-26T05:21:38;6.53;;;3.28;;
28070;SDS011;15383;48.408;9.968;2022-12-26T05:24:22;4.95;;;2.67;;
28070;SDS011;15383;48.408;9.968;2022-12-26T05:27:11;8.48;;;3.33;;
28070;SDS011;15383;48.408;9.968;2022-12-26T05:29:58;9.63;;;2.67;;
28070;SDS011;15383;48.408;9.968;2022-12-26T05:32:24;5.25;;;2.53;;
28070;SDS011;15383;48.408;9.968;2022-12-26T05:35:08;9.82;;;3.15;;
28070;SDS011;15383;48.408;9.968;2022-12-26T05:37:34;5.88;;;2.83;;
28070;SDS011;15383;48.408;9.968;2022-12-26T05:39:59;4.82;;;2.33;;
28070;SDS011;15383;48.408;9.968;2022-12-26T05:42:25;5.20;;;2.65;;
28070;SDS011;15383;48.408;9.968;2022-12-26T05:44:51;9.68;;;2.88;;
28070;SDS011;15383;48.408;9.968;2022-12-26T05:47:16;6.68;;;2.72;;
28070;SDS011;15383;48.408;9.968;2022-12-26T05:49:42;9.73;;;2.42;;
28070;SDS011;15383;48.408;9.968;2022-12-26T05:52:07;5.90;;;2.45;;
28070;SDS011;15383;48.408;9.968;2022-12-26T05:54:33;6.78;;;3.00;;
28070;SDS011;15383;48.408;9.968;2022-12-26T05:56:58;5.13;;;2.70;;
28070;SDS011;15383;48.408;9.968;2022-12-26T05:59:25;3.97;;;1.95;;
28070;SDS011;15383;48.408;9.968;2022-12-26T06:01:51;6.07;;;2.67;;
28070;SDS011;15383;48.408;9.968;2022-12-26T06:04:17;3.55;;;2.20;;
28070;SDS011;15383;48.408;9.968;2022-12-26T06:06:42;5.88;;;2.20;;
28070;SDS011;15383;48.408;9.968;2022-12-26T06:09:08;4.40;;;2.63;;
28070;SDS011;15383;48.408;9.968;2022-12-26T06:11:33;6.25;;;2.53;;
28070;SDS011;15383;48.408;9.968;2022-12-26T06:13:59;4.05;;;2.55;;
28070;SDS011;15383;48.408;9.968;2022-12-26T06:16:25;3.45;;;2.30;;
28070;SDS011;15383;48.408;9.968;2022-12-26T06:18:53;6.68;;;2.55;;
28070;SDS011;15383;48.408;9.968;2022-12-26T06:21:19;3.20;;;1.70;;
28070;SDS011;15383;48.408;9.968;2022-12-26T06:23:46;5.40;;;2.17;;
28070;SDS011;15383;48.408;9.968;2022-12-26T06:26:12;5.82;;;2.88;;
28070;SDS011;15383;48.408;9.968;2022-12-26T06:28:38;9.23;;;2.33;;
28070;SDS011;15383;48.408;9.968;2022-12-26T06:31:06;5.57;;;2.33;;
28070;SDS011;15383;48.408;9.968;2022-12-26T06:33:36;6.40;;;2.10;;
28070;SDS011;15383;48.408;9.968;2022-12-26T06:36:03;3.55;;;1.98;;
28070;SDS011;15383;48.408;9.968;2022-12-26T06:38:30;4.97;;;2.67;;
28070;SDS011;15383;48.408;9.968;2022-12-26T06:40:55;5.35;;;2.17;;
28070;SDS011;15383;48.408;9.968;2022-12-26T06:43:21;5.70;;;2.55;;
28070;SDS011;15383;48.408;9.968;2022-12-26T06:45:56;4.97;;;3.22;;
28070;SDS011;15383;48.408;9.968;2022-12-26T06:48:22;3.72;;;2.25;;
28070;SDS011;15383;48.408;9.968;2022-12-26T06:50:48;5.53;;;1.90;;
28070;SDS011;15383;48.408;9.968;2022-12-26T06:53:14;8.82;;;2.35;;
28070;SDS011;15383;48.408;9.968;2022-12-26T06:55:40;13.73;;;2.80;;
28070;SDS011;15383;48.408;9.968;2022-12-26T06:58:05;9.93;;;2.72;;
28070;SDS011;15383;48.408;9.968;2022-12-26T07:00:31;15.98;;;3.20;;
28070;SDS011;15383;48.408;9.968;2022-12-26T07:02:57;15.07;;;2.72;;
28070;SDS011;15383;48.408;9.968;2022-12-26T07:05:22;8.88;;;2.20;;
28070;SDS011;15383;48.408;9.968;2022-12-26T07:07:51;6.32;;;2.22;;
28070;SDS011;15383;48.408;9.968;2022-12-26T07:10:17;10.13;;;2.58;;
28070;SDS011;15383;48.408;9.968;2022-12-26T07:12:44;4.28;;;2.20;;
28070;SDS011;15383;48.408;9.968;2022-12-26T07:15:10;6.90;;;2.20;;
28070;SDS011;15383;48.408;9.968;2022-12-26T07:17:36;5.22;;;2.40;;
28070;SDS011;15383;48.408;9.968;2022-12-26T07:20:03;9.32;;;2.30;;
28070;SDS011;15383;48.408;9.968;2022-12-26T07:22:29;7.30;;;2.35;;
28070;SDS011;15383;48.408;9.968;2022-12-26T07:24:54;2.97;;;1.80;;
28070;SDS011;15383;48.408;9.968;2022-12-26T07:27:20;11.02;;;2.10;;
28070;SDS011;15383;48.408;9.968;2022-12-26T07:29:46;4.80;;;2.28;;
28070;SDS011;15383;48.408;9.968;2022-12-26T07:32:11;10.82;;;2.28;;
28070;SDS011;15383;48.408;9.968;2022-12-26T07:34:37;3.38;;;2.13;;
28070;SDS011;15383;48.408;9.968;2022-12-26T07:37:03;4.63;;;1.85;;
28070;SDS011;15383;48.408;9.968;2022-12-26T07:39:28;4.45;;;1.80;;
28070;SDS011;15383;48.408;9.968;2022-12-26T07:41:54;5.32;;;2.17;;
28070;SDS011;15383;48.408;9.968;2022-12-26T07:44:23;5.93;;;2.00;;
28070;SDS011;15383;48.408;9.968;2022-12-26T07:46:53;2.65;;;1.90;;
28070;SDS011;15383;48.408;9.968;2022-12-26T07:49:19;3.38;;;1.67;;
28070;SDS011;15383;48.408;9.968;2022-12-26T07:51:45;7.90;;;1.95;;
28070;SDS011;15383;48.408;9.968;2022-12-26T07:54:11;10.25;;;2.50;;
28070;SDS011;15383;48.408;9.968;2022-12-26T07:56:37;4.65;;;2.00;;
28070;SDS011;15383;48.408;9.968;2022-12-26T07:59:03;5.43;;;2.10;;
28070;SDS011;15383;48.408;9.968;2022-12-26T08:01:29;7.78;;;1.73;;
28070;SDS011;15383;48.408;9.968;2022-12-26T08:03:54;3.85;;;2.03;;
28070;SDS011;15383;48.408;9.968;2022-12-26T08:06:20;3.35;;;1.70;;
28070;SDS011;15383;48.408;9.968;2022-12-26T08:08:46;5.90;;;2.05;;
28070;SDS011;15383;48.408;9.968;2022-12-26T08:11:19;6.78;;;1.95;;
28070;SDS011;15383;48.408;9.968;2022-12-26T08:13:46;2.47;;;1.45;;
28070;SDS011;15383;48.408;9.968;2022-12-26T08:16:12;3.83;;;1.98;;
28070;SDS011;15383;48.408;9.968;2022-12-26T08:18:39;4.80;;;1.92;;
28070;SDS011;15383;48.408;9.968;2022-12-26T08:21:05;2.72;;;1.90;;
28070;SDS011;15383;48.408;9.968;2022-12-26T08:23:32;3.58;;;2.22;;
28070;SDS011;15383;48.408;9.968;2022-12-26T08:25:58;3.30;;;1.77;;
28070;SDS011;15383;48.408;9.968;2022-12-26T08:28:27;9.32;;;2.03;;
28070;SDS011;15383;48.408;9.968;2022-12-26T08:30:53;3.00;;;2.10;;
28070;SDS011;15383;48.408;9.968;2022-12-26T08:33:18;4.00;;;1.70;;
28070;SDS011;15383;48.408;9.968;2022-12-26T08:35:44;14.73;;;1.92;;
28070;SDS011;15383;48.408;9.968;2022-12-26T08:38:09;2.03;;;1.75;;
28070;SDS011;15383;48.408;9.968;2022-12-26T08:40:35;5.57;;;2.03;;
28070;SDS011;15383;48.408;9.968;2022-12-26T08:43:01;4.57;;;1.85;;
28070;SDS011;15383;48.408;9.968;2022-12-26T08:45:26;16.92;;;2.63;;
28070;SDS011;15383;48.408;9.968;2022-12-26T08:47:53;11.15;;;2.42;;
28070;SDS011;15383;48.408;9.968;2022-12-26T08:50:19;5.07;;;2.17;;
28070;SDS011;15383;48.408;9.968;2022-12-26T08:52:44;6.50;;;2.53;;
28070;SDS011;15383;48.408;9.968;2022-12-26T08:55:10;5.68;;;2.50;;
28070;SDS011;15383;48.408;9.968;2022-12-26T08:57:35;4.45;;;2.63;;
28070;SDS011;15383;48.408;9.968;2022-12-26T09:00:02;8.68;;;2.40;;
28070;SDS011;15383;48.408;9.968;2022-12-26T09:02:31;6.60;;;2.03;;
28070;SDS011;15383;48.408;9.968;2022-12-26T09:04:57;35.83;;;7.70;;
28070;SDS011;15383;48.408;9.968;2022-12-26T09:07:23;38.25;;;9.63;;
28070;SDS011;15383;48.408;9.968;2022-12-26T09:09:49;25.50;;;7.05;;
28070;SDS011;15383;48.408;9.968;2022-12-26T09:12:14;22.75;;;5.32;;
28070;SDS011;15383;48.408;9.968;2022-12-26T09:14:40;18.45;;;4.55;;
28070;SDS011;15383;48.408;9.968;2022-12-26T09:17:06;26.50;;;4.30;;
28070;SDS011;15383;48.408;9.968;2022-12-26T09:19:31;25.80;;;4.90;;
28070;SDS011;15383;48.408;9.968;2022-12-26T09:21:57;36.72;;;5.35;;
28070;SDS011;15383;48.408;9.968;2022-12-26T09:24:41;22.70;;;6.25;;
28070;SDS011;15383;48.408;9.968;2022-12-26T09:27:07;29.20;;;5.15;;
28070;SDS011;15383;48.408;9.968;2022-12-26T09:29:33;30.63;;;5.05;;
28070;SDS011;15383;48.408;9.968;2022-12-26T09:31:59;25.17;;;5.00;;
28070;SDS011;15383;48.408;9.968;2022-12-26T09:34:24;24.23;;;5.25;;
28070;SDS011;15383;48.408;9.968;2022-12-26T09:36:50;20.63;;;4.82;;
28070;SDS011;15383;48.408;9.968;2022-12-26T09:39:15;23.90;;;4.35;;
28070;SDS011;15383;48.408;9.968;2022-12-26T09:44:38;18.55;;;4.70;;
28070;SDS011;15383;48.408;9.968;2022-12-26T09:47:30;16.45;;;4.88;;
28070;SDS011;15383;48.408;9.968;2022-12-26T09:49:58;15.07;;;3.55;;
28070;SDS011;15383;48.408;9.968;2022-12-26T09:52:51;20.38;;;3.97;;
28070;SDS011;15383;48.408;9.968;2022-12-26T09:55:36;21.83;;;4.18;;
28070;SDS011;15383;48.408;9.968;2022-12-26T09:58:21;11.68;;;3.67;;
28070;SDS011;15383;48.408;9.968;2022-12-26T10:00:50;16.52;;;3.53;;
28070;SDS011;15383;48.408;9.968;2022-12-26T10:03:33;14.68;;;3.28;;
28070;SDS011;15383;48.408;9.968;2022-12-26T10:11:40;10.93;;;3.03;;
28070;SDS011;15383;48.408;9.968;2022-12-26T10:20:14;12.13;;;3.33;;
28070;SDS011;15383;48.408;9.968;2022-12-26T10:31:20;9.48;;;2.25;;
28070;SDS011;15383;48.408;9.968;2022-12-26T10:39:21;7.45;;;3.00;;
28070;SDS011;15383;48.408;9.968;2022-12-26T10:45:10;8.63;;;2.40;;
28070;SDS011;15383;48.408;9.968;2022-12-26T10:47:43;9.18;;;2.60;;
28070;SDS011;15383;48.408;9.968;2022-12-26T10:50:14;7.57;;;2.60;;
28070;SDS011;15383;48.408;9.968;2022-12-26T10:52:42;7.88;;;2.75;;
28070;SDS011;15383;48.408;9.968;2022-12-26T10:55:12;19.13;;;2.70;;
28070;SDS011;15383;48.408;9.968;2022-12-26T10:57:39;11.57;;;3.00;;
28070;SDS011;15383;48.408;9.968;2022-12-26T11:02:42;14.90;;;3.42;;
28070;SDS011;15383;48.408;9.968;2022-12-26T11:05:09;12.90;;;2.42;;
28070;SDS011;15383;48.408;9.968;2022-12-26T11:07:42;12.70;;;2.97;;
28070;SDS011;15383;48.408;9.968;2022-12-26T11:10:18;12.77;;;3.13;;
28070;SDS011;15383;48.408;9.968;2022-12-26T11:12:48;18.52;;;2.80;;
28070;SDS011;15383;48.408;9.968;2022-12-26T11:15:27;16.08;;;4.10;;
28070;SDS011;15383;48.408;9.968;2022-12-26T11:21:10;10.07;;;3.58;;
28070;SDS011;15383;48.408;9.968;2022-12-26T11:23:42;8.35;;;2.80;;
28070;SDS011;15383;48.408;9.968;2022-12-26T11:26:28;6.03;;;3.20;;
28070;SDS011;15383;48.408;9.968;2022-12-26T11:31:43;8.82;;;2.85;;
28070;SDS011;15383;48.408;9.968;2022-12-26T11:34:42;7.50;;;2.53;;
28070;SDS011;15383;48.408;9.968;2022-12-26T11:37:22;10.65;;;3.50;;
28070;SDS011;15383;48.408;9.968;2022-12-26T11:39:50;7.90;;;3.25;;
28070;SDS011;15383;48.408;9.968;2022-12-26T11:42:17;7.93;;;2.95;;
28070;SDS011;15383;48.408;9.968;2022-12-26T11:44:45;15.00;;;3.53;;
28070;SDS011;15383;48.408;9.968;2022-12-26T11:47:16;15.80;;;3.25;;
28070;SDS011;15383;48.408;9.968;2022-12-26T11:54:59;12.93;;;4.03;;
28070;SDS011;15383;48.408;9.968;2022-12-26T11:57:31;16.63;;;4.28;;
28070;SDS011;15383;48.408;9.968;2022-12-26T12:00:14;15.50;;;4.07;;
28070;SDS011;15383;48.408;9.968;2022-12-26T12:02:41;22.50;;;5.65;;
28070;SDS011;15383;48.408;9.968;2022-12-26T12:13:22;24.80;;;6.63;;
28070;SDS011;15383;48.408;9.968;2022-12-26T12:19:07;37.65;;;8.18;;
28070;SDS011;15383;48.408;9.968;2022-12-26T12:21:45;33.70;;;8.63;;
28070;SDS011;15383;48.408;9.968;2022-12-26T12:24:31;36.22;;;9.13;;
28070;SDS011;15383;48.408;9.968;2022-12-26T12:27:25;33.13;;;8.88;;
28070;SDS011;15383;48.408;9.968;2022-12-26T12:43:27;34.58;;;10.57;;
28070;SDS011;15383;48.408;9.968;2022-12-26T12:56:57;56.40;;;10.52;;
28070;SDS011;15383;48.408;9.968;2022-12-26T12:59:40;47.10;;;10.23;;
28070;SDS011;15383;48.408;9.968;2022-12-26T13:02:37;36.97;;;10.48;;
28070;SDS011;15383;48.408;9.968;2022-12-26T13:08:21;34.72;;;9.82;;
28070;SDS011;15383;48.408;9.968;2022-12-26T13:10:52;47.38;;;10.65;;
28070;SDS011;15383;48.408;9.968;2022-12-26T13:13:26;34.80;;;9.38;;
28070;SDS011;15383;48.408;9.968;2022-12-26T13:16:02;34.40;;;9.68;;
28070;SDS011;15383;48.408;9.968;2022-12-26T13:18:34;31.52;;;9.45;;
28070;SDS011;15383;48.408;9.968;2022-12-26T13:21:04;36.10;;;10.32;;
28070;SDS011;15383;48.408;9.968;2022-12-26T13:23:39;35.30;;;10.13;;
28070;SDS011;15383;48.408;9.968;2022-12-26T13:26:33;33.83;;;9.48;;
28070;SDS011;15383;48.408;9.968;2022-12-26T13:29:08;38.38;;;9.48;;
28070;SDS011;15383;48.408;9.968;2022-12-26T13:31:39;32.13;;;8.88;;
28070;SDS011;15383;48.408;9.968;2022-12-26T13:34:09;27.83;;;8.80;;
28070;SDS011;15383;48.408;9.968;2022-12-26T13:36:44;19.55;;;6.00;;
28070;SDS011;15383;48.408;9.968;2022-12-26T13:39:15;7.88;;;3.33;;
28070;SDS011;15383;48.408;9.968;2022-12-26T13:41:54;8.18;;;3.30;;
28070;SDS011;15383;48.408;9.968;2022-12-26T13:44:38;9.70;;;3.67;;
28070;SDS011;15383;48.408;9.968;2022-12-26T13:47:07;10.63;;;3.65;;
28070;SDS011;15383;48.408;9.968;2022-12-26T13:49:58;8.73;;;3.15;;
28070;SDS011;15383;48.408;9.968;2022-12-26T13:53:02;6.38;;;3.05;;
28070;SDS011;15383;48.408;9.968;2022-12-26T13:55:30;6.70;;;2.75;;
28070;SDS011;15383;48.408;9.968;2022-12-26T13:58:16;12.88;;;3.60;;
28070;SDS011;15383;48.408;9.968;2022-12-26T14:03:42;5.50;;;2.88;;
28070;SDS011;15383;48.408;9.968;2022-12-26T14:11:40;6.93;;;2.58;;
28070;SDS011;15383;48.408;9.968;2022-12-26T14:17:14;5.63;;;2.70;;
28070;SDS011;15383;48.408;9.968;2022-12-26T14:23:19;7.43;;;2.67;;
28070;SDS011;15383;48.408;9.968;2022-12-26T14:25:51;6.07;;;2.55;;
28070;SDS011;15383;48.408;9.968;2022-12-26T14:31:18;6.40;;;2.45;;
28070;SDS011;15383;48.408;9.968;2022-12-26T14:39:21;7.75;;;2.65;;
28070;SDS011;15383;48.408;9.968;2022-12-26T14:44:54;5.90;;;2.60;;
28070;SDS011;15383;48.408;9.968;2022-12-26T14:48:03;7.18;;;2.85;;
28070;SDS011;15383;48.408;9.968;2022-12-26T14:53:12;5.90;;;2.78;;
28070;SDS011;15383;48.408;9.968;2022-12-26T15:06:41;5.32;;;2.55;;
28070;SDS011;15383;48.408;9.968;2022-12-26T15:14:54;4.57;;;2.45;;
28070;SDS011;15383;48.408;9.968;2022-12-26T15:32:14;3.80;;;2.10;;
28070;SDS011;15383;48.408;9.968;2022-12-26T15:37:44;10.07;;;3.30;;
28070;SDS011;15383;48.408;9.968;2022-12-26T16:01:45;12.05;;;3.35;;
28070;SDS011;15383;48.408;9.968;2022-12-26T16:09:54;8.38;;;3.60;;
28070;SDS011;15383;48.408;9.968;2022-12-26T16:14:58;7.82;;;3.40;;
28070;SDS011;15383;48.408;9.968;2022-12-26T16:17:39;6.40;;;3.28;;
28070;SDS011;15383;48.408;9.968;2022-12-26T16:23:10;7.50;;;3.40;;
28070;SDS011;15383;48.408;9.968;2022-12-26T16:25:46;8.50;;;4.13;;
28070;SDS011;15383;48.408;9.968;2022-12-26T16:28:18;7.13;;;3.50;;
28070;SDS011;15383;48.408;9.968;2022-12-26T16:30:54;9.88;;;3.95;;
28070;SDS011;15383;48.408;9.968;2022-12-26T16:33:21;15.52;;;4.88;;
28070;SDS011;15383;48.408;9.968;2022-12-26T16:35:47;9.23;;;3.97;;
28070;SDS011;15383;48.408;9.968;2022-12-26T16:38:15;10.02;;;3.78;;
28070;SDS011;15383;48.408;9.968;2022-12-26T16:40:47;13.52;;;4.38;;
28070;SDS011;15383;48.408;9.968;2022-12-26T16:45:52;11.00;;;4.53;;
28070;SDS011;15383;48.408;9.968;2022-12-26T16:48:23;8.23;;;3.75;;
28070;SDS011;15383;48.408;9.968;2022-12-26T16:50:51;10.82;;;4.25;;
28070;SDS011;15383;48.408;9.968;2022-12-26T16:53:23;11.23;;;4.80;;
28070;SDS011;15383;48.408;9.968;2022-12-26T16:56:22;12.43;;;4.40;;
28070;SDS011;15383;48.408;9.968;2022-12-26T16:58:54;9.82;;;4.45;;
28070;SDS011;15383;48.408;9.968;2022-12-26T17:01:34;11.32;;;4.90;;
28070;SDS011;15383;48.408;9.968;2022-12-26T17:04:05;9.98;;;4.07;;
28070;SDS011;15383;48.408;9.968;2022-12-26T17:06:45;10.27;;;4.65;;
28070;SDS011;15383;48.408;9.968;2022-12-26T17:09:37;8.50;;;4.20;;
28070;SDS011;15383;48.408;9.968;2022-12-26T17:12:05;11.18;;;4.60;;
28070;SDS011;15383;48.408;9.968;2022-12-26T17:14:33;9.80;;;4.25;;
28070;SDS011;15383;48.408;9.968;2022-12-26T17:17:04;9.88;;;4.70;;
28070;SDS011;15383;48.408;9.968;2022-12-26T17:19:50;11.48;;;4.75;;
28070;SDS011;15383;48.408;9.968;2022-12-26T17:33:23;11.25;;;4.70;;
28070;SDS011;15383;48.408;9.968;2022-12-26T17:35:51;8.77;;;4.47;;
28070;SDS011;15383;48.408;9.968;2022-12-26T17:38:27;12.30;;;5.15;;
28070;SDS011;15383;48.408;9.968;2022-12-26T17:40:54;15.25;;;4.70;;
28070;SDS011;15383;48.408;9.968;2022-12-26T17:43:23;14.00;;;5.18;;
28070;SDS011;15383;48.408;9.968;2022-12-26T17:45:53;11.45;;;5.38;;
28070;SDS011;15383;48.408;9.968;2022-12-26T17:48:19;12.02;;;5.22;;
28070;SDS011;15383;48.408;9.968;2022-12-26T17:50:45;9.05;;;4.22;;
28070;SDS011;15383;48.408;9.968;2022-12-26T17:55:58;19.17;;;5.22;;
28070;SDS011;15383;48.408;9.968;2022-12-26T17:58:26;18.75;;;5.53;;
28070;SDS011;15383;48.408;9.968;2022-12-26T18:00:52;11.65;;;5.43;;
28070;SDS011;15383;48.408;9.968;2022-12-26T18:03:18;17.33;;;6.05;;
28070;SDS011;15383;48.408;9.968;2022-12-26T18:05:44;16.33;;;5.63;;
28070;SDS011;15383;48.408;9.968;2022-12-26T18:10:54;16.17;;;5.85;;
28070;SDS011;15383;48.408;9.968;2022-12-26T18:13:19;11.50;;;5.03;;
28070;SDS011;15383;48.408;9.968;2022-12-26T18:15:45;11.30;;;4.93;;
28070;SDS011;15383;48.408;9.968;2022-12-26T18:18:21;14.73;;;5.82;;
28070;SDS011;15383;48.408;9.968;2022-12-26T18:21:02;11.50;;;5.47;;
28070;SDS011;15383;48.408;9.968;2022-12-26T18:23:28;20.27;;;5.28;;
28070;SDS011;15383;48.408;9.968;2022-12-26T18:25:56;12.00;;;5.22;;
28070;SDS011;15383;48.408;9.968;2022-12-26T18:28:24;10.85;;;5.35;;
28070;SDS011;15383;48.408;9.968;2022-12-26T18:30:49;16.33;;;6.15;;
28070;SDS011;15383;48.408;9.968;2022-12-26T18:33:15;15.77;;;5.82;;
28070;SDS011;15383;48.408;9.968;2022-12-26T18:35:41;19.58;;;5.95;;
28070;SDS011;15383;48.408;9.968;2022-12-26T18:38:09;13.82;;;6.10;;
28070;SDS011;15383;48.408;9.968;2022-12-26T18:40:42;14.38;;;5.75;;
28070;SDS011;15383;48.408;9.968;2022-12-26T18:43:10;13.23;;;5.82;;
28070;SDS011;15383;48.408;9.968;2022-12-26T18:45:36;16.95;;;6.00;;
28070;SDS011;15383;48.408;9.968;2022-12-26T18:48:03;19.83;;;5.53;;
28070;SDS011;15383;48.408;9.968;2022-12-26T18:50:29;16.15;;;6.28;;
28070;SDS011;15383;48.408;9.968;2022-12-26T18:52:56;12.68;;;6.30;;
28070;SDS011;15383;48.408;9.968;2022-12-26T18:55:22;16.67;;;6.55;;
28070;SDS011;15383;48.408;9.968;2022-12-26T18:57:49;14.68;;;6.28;;
28070;SDS011;15383;48.408;9.968;2022-12-26T19:00:15;13.20;;;6.10;;
28070;SDS011;15383;48.408;9.968;2022-12-26T19:02:42;17.23;;;6.70;;
28070;SDS011;15383;48.408;9.968;2022-12-26T19:05:13;16.63;;;7.22;;
28070;SDS011;15383;48.408;9.968;2022-12-26T19:07:39;15.63;;;6.85;;
28070;SDS011;15383;48.408;9.968;2022-12-26T19:10:05;19.77;;;7.05;;
28070;SDS011;15383;48.408;9.968;2022-12-26T19:12:33;20.48;;;6.45;;
28070;SDS011;15383;48.408;9.968;2022-12-26T19:14:59;13.25;;;6.68;;
28070;SDS011;15383;48.408;9.968;2022-12-26T19:17:24;14.57;;;6.88;;
28070;SDS011;15383;48.408;9.968;2022-12-26T19:19:50;19.90;;;6.88;;
28070;SDS011;15383;48.408;9.968;2022-12-26T19:22:15;23.85;;;6.53;;